createdAt,value
2018-12-12T00:00:10.585Z,97975.91
2018-12-12T00:02:39.700Z,97968.55
2018-12-12T00:05:08.917Z,97972.89
2018-12-12T00:07:38.104Z,97974.61
2018-12-12T00:10:09.491Z,97976.33
2018-12-12T00:12:38.768Z,97972.45
2018-12-12T00:15:07.459Z,97975.05
2018-12-12T00:17:36.734Z,97971.58
2018-12-12T00:20:05.959Z,97970.28
2018-12-12T00:22:34.813Z,97970.27
2018-12-12T00:25:03.714Z,97970.27
2018-12-12T00:27:32.447Z,97967.67
2018-12-12T00:30:01.575Z,97972.84
2018-12-12T00:32:30.615Z,97974.14
2018-12-12T00:34:59.633Z,97978.89
2018-12-12T00:37:28.993Z,97972.44
2018-12-12T00:39:58.017Z,97978.48
2018-12-12T00:42:27.077Z,97969.86
2018-12-12T00:44:56.055Z,97972.02
2018-12-12T00:47:25.170Z,97967.71
2018-12-12T00:49:54.289Z,97967.71
2018-12-12T00:52:23.337Z,97968.98
2018-12-12T00:54:52.609Z,97976.33
2018-12-12T00:57:22.548Z,97977.18
2018-12-12T00:59:51.608Z,97974.16
2018-12-12T01:02:20.407Z,97975.04
2018-12-12T01:04:49.365Z,97974.16
2018-12-12T01:07:18.313Z,97973.30
2018-12-12T01:09:47.476Z,97977.62
2018-12-12T01:12:16.605Z,97973.71
2018-12-12T01:14:45.560Z,97965.95
2018-12-12T01:17:14.648Z,97964.21
2018-12-12T01:19:43.585Z,97965.11
2018-12-12T01:22:12.489Z,97964.23
2018-12-12T01:24:41.267Z,97958.20
2018-12-12T01:27:10.377Z,97952.59
2018-12-12T01:29:39.388Z,97954.31
2018-12-12T01:32:08.428Z,97953.86
2018-12-12T01:34:37.648Z,97955.16
2018-12-12T01:37:07.175Z,97951.29
2018-12-12T01:39:36.336Z,97945.23
2018-12-12T01:42:05.328Z,97953.88
2018-12-12T01:44:34.279Z,97952.16
2018-12-12T01:47:03.381Z,97947.82
2018-12-12T01:49:32.297Z,97948.70
2018-12-12T01:52:01.245Z,97942.66
2018-12-12T01:54:30.021Z,97948.68
2018-12-12T01:56:58.916Z,97947.83
2018-12-12T01:59:27.710Z,97944.80
2018-12-12T02:01:56.800Z,97949.98
2018-12-12T02:04:25.748Z,97950.41
2018-12-12T02:06:54.439Z,97946.09
2018-12-12T02:09:23.443Z,97942.64
2018-12-12T02:11:52.236Z,97946.95
2018-12-12T02:14:21.145Z,97946.95
2018-12-12T02:16:50.086Z,97951.25
2018-12-12T02:19:19.185Z,97946.06
2018-12-12T02:21:48.245Z,97951.23
2018-12-12T02:24:17.095Z,97943.91
2018-12-12T02:26:46.182Z,97949.95
2018-12-12T02:29:15.215Z,97947.36
2018-12-12T02:31:44.099Z,97951.25
2018-12-12T02:34:13.234Z,97950.38
2018-12-12T02:36:42.292Z,97951.25
2018-12-12T02:39:11.236Z,97943.05
2018-12-12T02:41:40.284Z,97949.08
2018-12-12T02:44:09.323Z,97949.95
2018-12-12T02:46:38.124Z,97949.52
2018-12-12T02:49:07.078Z,97949.94
2018-12-12T02:51:36.020Z,97952.09
2018-12-12T02:54:04.800Z,97960.74
2018-12-12T02:56:33.931Z,97960.77
2018-12-12T02:59:02.990Z,97956.84
2018-12-12T03:01:31.887Z,97954.73
2018-12-12T03:04:00.810Z,97961.22
2018-12-12T03:06:29.503Z,97953.00
2018-12-12T03:08:58.475Z,97955.58
2018-12-12T03:11:27.429Z,97948.66
2018-12-12T03:13:56.216Z,97946.47
2018-12-12T03:16:25.258Z,97947.80
2018-12-12T03:18:54.149Z,97948.21
2018-12-12T03:21:23.286Z,97948.64
2018-12-12T03:23:52.535Z,97951.64
2018-12-12T03:26:21.577Z,97952.09
2018-12-12T03:28:50.310Z,97956.84
2018-12-12T03:31:19.360Z,97955.97
2018-12-12T03:33:48.299Z,97954.26
2018-12-12T03:36:17.107Z,97952.97
2018-12-12T03:38:46.147Z,97954.68
2018-12-12T03:41:15.067Z,97948.22
2018-12-12T03:43:43.977Z,97951.22
2018-12-12T03:46:12.896Z,97949.51
2018-12-12T03:48:41.901Z,97952.97
2018-12-12T03:51:10.818Z,97959.03
2018-12-12T03:53:39.729Z,97951.72
2018-12-12T03:56:08.810Z,97957.73
2018-12-12T03:58:37.821Z,97966.37
2018-12-12T04:01:06.608Z,97963.36
2018-12-12T04:03:35.485Z,97964.22
2018-12-12T04:06:04.207Z,97961.22
2018-12-12T04:08:33.066Z,97967.66
2018-12-12T04:11:01.799Z,97972.42
2018-12-12T04:13:30.900Z,97967.66
2018-12-12T04:15:59.813Z,97975.44
2018-12-12T04:18:28.638Z,97984.52
2018-12-12T04:20:57.612Z,97974.59
2018-12-12T04:23:26.617Z,97979.36
2018-12-12T04:25:55.521Z,97971.58
2018-12-12T04:28:24.604Z,97975.45
2018-12-12T04:30:53.460Z,97984.95
2018-12-12T04:33:22.485Z,97974.16
2018-12-12T04:35:51.378Z,97981.50
2018-12-12T04:38:20.327Z,97989.72
2018-12-12T04:40:49.257Z,97982.36
2018-12-12T04:43:18.107Z,97981.50
2018-12-12T04:45:46.930Z,97989.72
2018-12-12T04:48:15.923Z,97987.53
2018-12-12T04:50:45.454Z,97982.81
2018-12-12T04:53:14.575Z,97990.57
2018-12-12T04:55:43.635Z,97984.52
2018-12-12T04:58:12.808Z,97993.16
2018-12-12T05:00:41.926Z,97990.99
2018-12-12T05:03:10.876Z,97988.41
2018-12-12T05:05:39.922Z,97989.70
2018-12-12T05:08:08.723Z,97994.44
2018-12-12T05:10:37.802Z,97992.71
2018-12-12T05:13:06.904Z,98000.06
2018-12-12T05:15:35.862Z,98001.33
2018-12-12T05:18:04.867Z,97999.62
2018-12-12T05:20:33.842Z,98006.97
2018-12-12T05:23:02.726Z,98012.56
2018-12-12T05:25:31.775Z,98009.11
2018-12-12T05:28:00.577Z,98015.16
2018-12-12T05:30:29.720Z,98015.58
2018-12-12T05:32:58.715Z,98015.16
2018-12-12T05:35:27.675Z,98018.61
2018-12-12T05:37:56.660Z,98010.42
2018-12-12T05:40:25.919Z,98019.90
2018-12-12T05:42:54.756Z,98017.34
2018-12-12T05:45:23.925Z,98023.80
2018-12-12T05:47:52.958Z,98027.23
2018-12-12T05:50:23.044Z,98022.92
2018-12-12T05:52:51.974Z,98027.67
2018-12-12T05:55:20.949Z,98032.88
2018-12-12T05:57:50.056Z,98037.19
2018-12-12T06:00:19.059Z,98050.13
2018-12-12T06:02:48.244Z,98046.22
2018-12-12T06:05:17.283Z,98055.31
2018-12-12T06:07:46.244Z,98064.79
2018-12-12T06:10:15.240Z,98068.70
2018-12-12T06:12:44.375Z,98069.56
2018-12-12T06:15:13.392Z,98080.34
2018-12-12T06:17:42.304Z,98082.95
2018-12-12T06:20:11.497Z,98082.52
2018-12-12T06:22:40.488Z,98085.55
2018-12-12T06:25:09.481Z,98086.42
2018-12-12T06:27:38.500Z,98088.56
2018-12-12T06:30:08.661Z,98090.73
2018-12-12T06:32:37.564Z,98094.59
2018-12-12T06:35:07.032Z,98094.61
2018-12-12T06:37:36.102Z,98099.79
2018-12-12T06:40:05.151Z,98096.31
2018-12-12T06:42:34.026Z,98098.48
2018-12-12T06:45:02.976Z,98095.48
2018-12-12T06:47:32.121Z,98087.25
2018-12-12T06:50:01.106Z,98101.50
2018-12-12T06:52:30.144Z,98085.55
2018-12-12T06:54:59.176Z,98094.61
2018-12-12T06:57:27.940Z,98094.61
2018-12-12T06:59:56.973Z,98094.61
2018-12-12T07:02:26.105Z,98098.52
2018-12-12T07:04:55.176Z,98095.91
2018-12-12T07:07:24.534Z,98098.91
2018-12-12T07:09:53.643Z,98095.47
2018-12-12T07:12:22.360Z,98102.38
2018-12-12T07:14:51.403Z,98106.23
2018-12-12T07:17:20.350Z,98106.66
2018-12-12T07:19:49.364Z,98112.25
2018-12-12T07:22:18.363Z,98108.79
2018-12-12T07:24:47.385Z,98112.22
2018-12-12T07:27:16.393Z,98114.77
2018-12-12T07:29:45.745Z,98114.75
2018-12-12T07:32:14.872Z,98119.43
2018-12-12T07:34:43.800Z,98126.30
2018-12-12T07:37:12.983Z,98123.66
2018-12-12T07:39:42.021Z,98121.08
2018-12-12T07:42:10.921Z,98128.36
2018-12-12T07:44:39.952Z,98130.46
2018-12-12T07:47:08.889Z,98136.50
2018-12-12T07:49:37.880Z,98133.91
2018-12-12T07:52:06.771Z,98136.00
2018-12-12T07:54:35.548Z,98133.86
2018-12-12T07:57:04.560Z,98137.31
2018-12-12T07:59:33.234Z,98142.52
2018-12-12T08:02:02.414Z,98145.95
2018-12-12T08:04:31.452Z,98146.43
2018-12-12T08:07:00.309Z,98149.34
2018-12-12T08:09:29.218Z,98151.85
2018-12-12T08:11:58.056Z,98147.01
2018-12-12T08:14:27.054Z,98154.36
2018-12-12T08:16:56.057Z,98149.11
2018-12-12T08:19:25.075Z,98152.46
2018-12-12T08:21:53.836Z,98149.58
2018-12-12T08:24:22.728Z,98152.12
2018-12-12T08:26:51.784Z,98145.02
2018-12-12T08:29:20.813Z,98144.75
2018-12-12T08:31:49.784Z,98151.94
2018-12-12T08:34:18.506Z,98156.70
2018-12-12T08:36:47.426Z,98156.70
2018-12-12T08:39:16.677Z,98155.96
2018-12-12T08:41:45.800Z,98153.15
2018-12-12T08:44:14.598Z,98156.13
2018-12-12T08:46:43.614Z,98162.05
2018-12-12T08:49:12.562Z,98153.11
2018-12-12T08:51:41.604Z,98157.62
2018-12-12T08:54:10.563Z,98150.84
2018-12-12T08:56:39.589Z,98148.03
2018-12-12T08:59:08.640Z,98150.59
2018-12-12T09:01:37.503Z,98147.69
2018-12-12T09:04:06.490Z,98151.66
2018-12-12T09:06:35.556Z,98148.77
2018-12-12T09:09:06.834Z,98146.25
2018-12-12T09:11:36.004Z,98146.03
2018-12-12T09:14:05.049Z,98143.92
2018-12-12T09:16:33.957Z,98134.51
2018-12-12T09:19:02.959Z,98142.63
2018-12-12T09:21:31.899Z,98138.12
2018-12-12T09:24:00.745Z,98139.96
2018-12-12T09:26:29.665Z,98136.52
2018-12-12T09:28:58.595Z,98132.97
2018-12-12T09:31:27.554Z,98142.11
2018-12-12T09:33:56.624Z,98135.59
2018-12-12T09:36:25.785Z,98137.16
2018-12-12T09:38:55.028Z,98136.23
2018-12-12T09:41:24.059Z,98132.11
2018-12-12T09:43:53.599Z,98126.81
2018-12-12T09:46:22.308Z,98130.19
2018-12-12T09:48:51.155Z,98129.80
2018-12-12T09:51:19.969Z,98131.33
2018-12-12T09:53:49.154Z,98127.64
2018-12-12T09:56:18.193Z,98127.38
2018-12-12T09:58:46.955Z,98130.33
2018-12-12T10:01:16.129Z,98127.11
2018-12-12T10:03:45.198Z,98127.69
2018-12-12T10:06:14.228Z,98126.17
2018-12-12T10:08:51.654Z,98120.73
2018-12-12T10:11:34.525Z,98123.24
2018-12-12T10:14:04.261Z,98123.24
2018-12-12T10:16:33.098Z,98118.92
2018-12-12T10:19:02.171Z,98115.23
2018-12-12T10:21:31.341Z,98107.74
2018-12-12T10:24:00.184Z,98101.16
2018-12-12T10:26:29.334Z,98104.17
2018-12-12T10:28:58.588Z,98103.69
2018-12-12T10:31:27.534Z,98100.36
2018-12-12T10:33:56.865Z,98103.37
2018-12-12T10:36:26.014Z,98101.38
2018-12-12T10:38:55.134Z,98093.89
2018-12-12T10:41:24.356Z,98103.73
2018-12-12T10:43:53.481Z,98104.64
2018-12-12T10:46:22.447Z,98102.09
2018-12-12T10:48:51.393Z,98104.10
2018-12-12T10:51:20.236Z,98102.67
2018-12-12T10:53:49.209Z,98103.27
2018-12-12T10:56:18.143Z,98104.54
2018-12-12T10:58:47.138Z,98102.58
2018-12-12T11:01:21.389Z,98107.61
2018-12-12T11:03:50.083Z,98105.41
2018-12-12T11:06:19.004Z,98102.84
2018-12-12T11:08:48.099Z,98098.86
2018-12-12T11:11:17.008Z,98096.70
2018-12-12T11:13:45.703Z,98094.52
2018-12-12T11:16:14.696Z,98090.70
2018-12-12T11:18:43.553Z,98093.68
2018-12-12T11:21:12.428Z,98087.80
2018-12-12T11:23:41.376Z,98095.59
2018-12-12T11:26:10.471Z,98090.12
2018-12-12T11:28:41.487Z,98090.72
2018-12-12T11:31:10.584Z,98086.95
2018-12-12T11:33:39.407Z,98089.22
2018-12-12T11:36:08.226Z,98089.13
2018-12-12T11:38:37.136Z,98090.84
2018-12-12T11:41:06.131Z,98084.16
2018-12-12T11:43:35.246Z,98090.97
2018-12-12T11:46:04.411Z,98088.10
2018-12-12T11:48:33.514Z,98083.92
2018-12-12T11:51:02.485Z,98087.80
2018-12-12T11:53:31.408Z,98088.73
2018-12-12T11:56:00.507Z,98085.63
2018-12-12T11:58:29.195Z,98089.14
2018-12-12T12:00:58.301Z,98089.87
2018-12-12T12:03:27.346Z,98097.81
2018-12-12T12:05:56.286Z,98094.47
2018-12-12T12:08:25.186Z,98098.94
2018-12-12T12:10:54.255Z,98096.55
2018-12-12T12:13:23.172Z,98099.14
2018-12-12T12:15:52.185Z,98097.99
2018-12-12T12:18:21.253Z,98096.61
2018-12-12T12:20:49.884Z,98099.66
2018-12-12T12:23:18.707Z,98104.97
2018-12-12T12:25:47.583Z,98099.97
2018-12-12T12:28:16.663Z,98096.24
2018-12-12T12:30:45.810Z,98107.84
2018-12-12T12:33:14.743Z,98106.89
2018-12-12T12:35:43.776Z,98104.02
2018-12-12T12:38:12.945Z,98103.30
2018-12-12T12:40:42.053Z,98111.74
2018-12-12T12:43:10.793Z,98113.89
2018-12-12T12:45:39.681Z,98114.99
2018-12-12T12:48:08.718Z,98123.37
2018-12-12T12:50:37.589Z,98117.64
2018-12-12T12:53:06.423Z,98122.39
2018-12-12T12:55:35.471Z,98128.02
2018-12-12T12:58:04.559Z,98130.94
2018-12-12T13:00:33.664Z,98129.27
2018-12-12T13:03:02.620Z,98120.69
2018-12-12T13:05:31.652Z,98125.04
2018-12-12T13:08:00.448Z,98126.17
2018-12-12T13:10:29.816Z,98130.00
2018-12-12T13:12:59.165Z,98131.97
2018-12-12T13:15:28.579Z,98136.13
2018-12-12T13:17:57.583Z,98130.79
2018-12-12T13:20:26.576Z,98133.75
2018-12-12T13:22:55.647Z,98133.81
2018-12-12T13:25:24.564Z,98134.04
2018-12-12T13:27:53.634Z,98137.63
2018-12-12T13:30:22.438Z,98139.78
2018-12-12T13:32:51.421Z,98135.33
2018-12-12T13:35:20.090Z,98143.30
2018-12-12T13:37:49.104Z,98147.16
2018-12-12T13:40:18.060Z,98147.31
2018-12-12T13:42:47.172Z,98149.09
2018-12-12T13:45:15.928Z,98154.67
2018-12-12T13:47:44.860Z,98154.48
2018-12-12T13:50:13.976Z,98161.13
2018-12-12T13:52:42.832Z,98158.31
2018-12-12T13:55:12.009Z,98163.10
2018-12-12T13:57:41.156Z,98171.54
2018-12-12T14:00:10.290Z,98170.23
2018-12-12T14:02:39.436Z,98171.97
2018-12-12T14:05:08.362Z,98170.26
2018-12-12T14:07:37.374Z,98176.79
2018-12-12T14:10:06.516Z,98178.10
2018-12-12T14:12:35.558Z,98179.44
2018-12-12T14:15:04.630Z,98183.48
2018-12-12T14:17:33.746Z,98188.34
2018-12-12T14:20:02.552Z,98192.29
2018-12-12T14:22:31.547Z,98187.45
2018-12-12T14:25:00.669Z,98191.84
2018-12-12T14:27:29.728Z,98185.88
2018-12-12T14:29:58.567Z,98186.36
2018-12-12T14:32:27.394Z,98191.98
2018-12-12T14:34:56.189Z,98189.50
2018-12-12T14:37:25.381Z,98192.31
2018-12-12T14:39:54.342Z,98193.87
2018-12-12T14:42:23.411Z,98195.80
2018-12-12T14:44:52.397Z,98191.58
2018-12-12T14:47:21.415Z,98191.63
2018-12-12T14:49:50.440Z,98196.50
2018-12-12T14:52:19.163Z,98196.98
2018-12-12T14:54:48.043Z,98198.31
2018-12-12T14:57:17.008Z,98196.64
2018-12-12T14:59:46.140Z,98194.51
2018-12-12T15:02:15.251Z,98201.87
2018-12-12T15:04:43.984Z,98205.79
2018-12-12T15:07:12.874Z,98203.20
2018-12-12T15:09:41.869Z,98206.69
2018-12-12T15:12:10.869Z,98205.83
2018-12-12T15:14:39.768Z,98208.00
2018-12-12T15:17:08.614Z,98208.44
2018-12-12T15:19:37.318Z,98213.20
2018-12-12T15:22:06.668Z,98207.59
2018-12-12T15:24:35.775Z,98209.33
2018-12-12T15:27:04.569Z,98211.06
2018-12-12T15:29:34.446Z,98218.00
2018-12-12T15:32:03.455Z,98214.55
2018-12-12T15:34:32.506Z,98221.50
2018-12-12T15:37:01.544Z,98222.38
2018-12-12T15:39:30.448Z,98225.89
2018-12-12T15:41:59.423Z,98222.41
2018-12-12T15:44:28.525Z,98225.02
2018-12-12T15:46:57.675Z,98231.52
2018-12-12T15:49:27.119Z,98231.92
2018-12-12T15:51:56.599Z,98234.97
2018-12-12T15:54:25.672Z,98232.80
2018-12-12T15:56:54.708Z,98231.03
2018-12-12T15:59:23.824Z,98240.55
2018-12-12T16:01:53.019Z,98244.05
2018-12-12T16:04:21.827Z,98241.05
2018-12-12T16:06:50.736Z,98241.49
2018-12-12T16:09:19.731Z,98240.63
2018-12-12T16:11:48.835Z,98237.59
2018-12-12T16:14:18.357Z,98244.50
2018-12-12T16:16:47.447Z,98245.80
2018-12-12T16:19:16.465Z,98247.06
2018-12-12T16:21:45.289Z,98244.47
2018-12-12T16:24:14.042Z,98248.39
2018-12-12T16:26:42.959Z,98249.67
2018-12-12T16:29:11.872Z,98249.69
2018-12-12T16:31:40.658Z,98251.88
2018-12-12T16:34:09.636Z,98247.98
2018-12-12T16:36:38.693Z,98255.31
2018-12-12T16:39:08.784Z,98259.20
2018-12-12T16:41:37.889Z,98256.61
2018-12-12T16:44:06.591Z,98260.95
2018-12-12T16:46:35.339Z,98264.83
2018-12-12T16:49:04.209Z,98266.55
2018-12-12T16:51:33.175Z,98260.91
2018-12-12T16:54:02.242Z,98260.45
2018-12-12T16:56:31.342Z,98258.30
2018-12-12T16:59:00.501Z,98256.54
2018-12-12T17:01:29.407Z,98259.59
2018-12-12T17:03:58.465Z,98260.46
2018-12-12T17:06:28.016Z,98263.47
2018-12-12T17:08:56.787Z,98251.33
2018-12-12T17:11:25.975Z,98259.09
2018-12-12T17:13:54.833Z,98259.11
2018-12-12T17:16:23.851Z,98254.39
2018-12-12T17:18:52.900Z,98256.59
2018-12-12T17:21:22.495Z,98248.37
2018-12-12T17:23:51.751Z,98251.84
2018-12-12T17:26:20.803Z,98252.27
2018-12-12T17:28:49.840Z,98254.87
2018-12-12T17:31:18.976Z,98255.72
2018-12-12T17:33:48.028Z,98258.34
2018-12-12T17:36:17.077Z,98260.92
2018-12-12T17:38:45.992Z,98269.56
2018-12-12T17:41:14.753Z,98259.59
2018-12-12T17:43:43.744Z,98265.20
2018-12-12T17:46:12.894Z,98266.92
2018-12-12T17:48:41.932Z,98263.03
2018-12-12T17:51:10.936Z,98265.63
2018-12-12T17:53:40.065Z,98267.80
2018-12-12T17:56:08.897Z,98266.08
2018-12-12T17:58:37.745Z,98272.11
2018-12-12T18:01:06.696Z,98271.66
2018-12-12T18:03:36.386Z,98277.70
2018-12-12T18:06:05.535Z,98285.92
2018-12-12T18:08:36.104Z,98273.78
2018-12-12T18:11:06.309Z,98278.97
2018-12-12T18:13:34.951Z,98279.84
2018-12-12T18:16:03.934Z,98289.35
2018-12-12T18:18:32.974Z,98280.71
2018-12-12T18:21:02.012Z,98288.09
2018-12-12T18:23:30.807Z,98291.13
2018-12-12T18:26:00.378Z,98285.94
2018-12-12T18:28:29.416Z,98285.08
2018-12-12T18:30:58.533Z,98279.50
2018-12-12T18:33:27.417Z,98284.28
2018-12-12T18:35:57.059Z,98288.17
2018-12-12T18:38:26.127Z,98294.23
2018-12-12T18:40:55.134Z,98298.57
2018-12-12T18:43:23.817Z,98300.27
2018-12-12T18:45:52.600Z,98292.07
2018-12-12T18:48:21.567Z,98292.05
2018-12-12T18:50:51.256Z,98298.12
2018-12-12T18:53:20.059Z,98295.48
2018-12-12T18:55:48.726Z,98298.48
2018-12-12T18:58:17.469Z,98296.73
2018-12-12T19:00:46.143Z,98300.20
2018-12-12T19:03:15.120Z,98294.13
2018-12-12T19:05:44.548Z,98305.83
2018-12-12T19:08:13.368Z,98291.93
2018-12-12T19:10:42.309Z,98298.88
2018-12-12T19:13:11.021Z,98296.69
2018-12-12T19:15:39.988Z,98293.64
2018-12-12T19:18:08.855Z,98294.50
2018-12-12T19:20:37.938Z,98299.75
2018-12-12T19:23:08.185Z,98301.04
2018-12-12T19:25:37.081Z,98297.55
2018-12-12T19:28:06.147Z,98291.95
2018-12-12T19:30:35.168Z,98291.91
2018-12-12T19:33:03.941Z,98294.95
2018-12-12T19:35:34.838Z,98301.94
2018-12-12T19:38:04.149Z,98300.25
2018-12-12T19:40:33.171Z,98297.66
2018-12-12T19:43:02.094Z,98299.39
2018-12-12T19:45:31.073Z,98296.84
2018-12-12T19:48:00.280Z,98299.91
2018-12-12T19:50:29.411Z,98301.65
2018-12-12T19:52:58.416Z,98298.61
2018-12-12T19:55:27.247Z,98299.03
2018-12-12T19:57:56.437Z,98305.91
2018-12-12T20:00:25.241Z,98302.84
2018-12-12T20:02:54.303Z,98294.58
2018-12-12T20:05:23.369Z,98299.72
2018-12-12T20:07:52.573Z,98301.02
2018-12-12T20:10:21.624Z,98306.14
2018-12-12T20:12:50.761Z,98303.91
2018-12-12T20:15:24.823Z,98306.09
2018-12-12T20:17:53.482Z,98306.09
2018-12-12T20:20:22.487Z,98307.31
2018-12-12T20:22:51.356Z,98295.60
2018-12-12T20:25:20.251Z,98298.59
2018-12-12T20:27:49.276Z,98298.58
2018-12-12T20:30:18.084Z,98296.81
2018-12-12T20:32:47.016Z,98291.63
2018-12-12T20:35:16.089Z,98290.70
2018-12-12T20:37:45.197Z,98293.69
2018-12-12T20:40:14.865Z,98294.50
2018-12-12T20:42:43.982Z,98299.65
2018-12-12T20:45:13.029Z,98291.86
2018-12-12T20:47:41.887Z,98296.16
2018-12-12T20:50:10.949Z,98296.09
2018-12-12T20:52:39.631Z,98299.14
2018-12-12T20:55:09.418Z,98309.57
2018-12-12T20:57:38.400Z,98307.83
2018-12-12T21:00:07.672Z,98311.23
2018-12-12T21:02:36.386Z,98305.55
2018-12-12T21:05:05.426Z,98303.31
2018-12-12T21:07:34.289Z,98307.58
2018-12-12T21:10:03.393Z,98305.34
2018-12-12T21:12:32.245Z,98311.74
2018-12-12T21:15:01.131Z,98312.08
2018-12-12T21:17:30.061Z,98306.02
2018-12-12T21:19:59.124Z,98310.25
2018-12-12T21:22:28.493Z,98316.23
2018-12-12T21:24:57.505Z,98320.22
2018-12-12T21:27:26.542Z,98323.13
2018-12-12T21:29:55.601Z,98333.77
2018-12-12T21:32:24.636Z,98335.61
2018-12-12T21:34:53.683Z,98339.02
2018-12-12T21:37:22.699Z,98335.97
2018-12-12T21:39:51.585Z,98341.54
2018-12-12T21:42:20.319Z,98338.13
2018-12-12T21:44:49.380Z,98346.78
2018-12-12T21:47:18.240Z,98342.00
2018-12-12T21:49:47.129Z,98345.27
2018-12-12T21:52:15.898Z,98350.50
2018-12-12T21:54:44.753Z,98347.92
2018-12-12T21:57:13.685Z,98347.71
2018-12-12T21:59:42.572Z,98358.13
2018-12-12T22:02:11.643Z,98346.75
2018-12-12T22:04:40.777Z,98339.56
2018-12-12T22:07:09.467Z,98340.33
2018-12-12T22:09:38.410Z,98344.99
2018-12-12T22:12:07.387Z,98342.91
2018-12-12T22:14:36.491Z,98342.98
2018-12-12T22:17:05.819Z,98339.56
2018-12-12T22:19:34.731Z,98346.18
2018-12-12T22:22:03.829Z,98345.16
2018-12-12T22:24:32.961Z,98346.31
2018-12-12T22:27:02.022Z,98339.73
2018-12-12T22:29:31.040Z,98347.01
2018-12-12T22:32:00.002Z,98340.45
2018-12-12T22:34:28.999Z,98337.41
2018-12-12T22:36:57.878Z,98344.22
2018-12-12T22:39:26.636Z,98337.80
2018-12-12T22:41:55.660Z,98329.13
2018-12-12T22:44:24.323Z,98329.20
2018-12-12T22:46:53.304Z,98324.14
2018-12-12T22:49:22.534Z,98332.84
2018-12-12T22:51:51.687Z,98322.68
2018-12-12T22:54:20.644Z,98326.59
2018-12-12T22:56:49.507Z,98321.39
2018-12-12T22:59:18.548Z,98311.63
2018-12-12T23:01:47.627Z,98321.66
2018-12-12T23:04:16.563Z,98316.13
2018-12-12T23:06:45.485Z,98320.08
2018-12-12T23:09:14.574Z,98318.96
2018-12-12T23:11:43.463Z,98317.33
2018-12-12T23:14:12.193Z,98324.97
2018-12-12T23:16:41.276Z,98316.67
2018-12-12T23:19:10.340Z,98321.63
2018-12-12T23:21:39.572Z,98324.33
2018-12-12T23:24:08.734Z,98317.56
2018-12-12T23:26:37.764Z,98326.30
2018-12-12T23:29:06.510Z,98328.97
2018-12-12T23:31:35.723Z,98328.62
2018-12-12T23:34:04.765Z,98322.20
2018-12-12T23:36:33.900Z,98323.50
2018-12-12T23:39:04.015Z,98328.20
2018-12-12T23:41:32.763Z,98320.73
2018-12-12T23:44:01.486Z,98322.93
2018-12-12T23:46:30.384Z,98318.16
2018-12-12T23:48:59.258Z,98321.12
2018-12-12T23:51:28.432Z,98317.16
2018-12-12T23:53:57.503Z,98314.59
2018-12-12T23:56:26.592Z,98314.25
2018-12-12T23:58:55.338Z,98322.91
